sensor_id;sensor_type;location;lat;lon;timestamp;P1;durP1;ratioP1;P2;durP2;ratioP2
20776;SDS011;10548;47.504;8.248;2022-09-09T00:05:09;8.23;;;2.43;;
20776;SDS011;10548;47.504;8.248;2022-09-09T00:07:50;8.23;;;2.40;;
20776;SDS011;10548;47.504;8.248;2022-09-09T00:10:28;7.77;;;2.50;;
20776;SDS011;10548;47.504;8.248;2022-09-09T00:13:20;5.63;;;2.10;;
20776;SDS011;10548;47.504;8.248;2022-09-09T00:15:58;8.00;;;2.23;;
20776;SDS011;10548;47.504;8.248;2022-09-09T00:19:02;4.13;;;2.00;;
20776;SDS011;10548;47.504;8.248;2022-09-09T00:21:49;11.40;;;2.20;;
20776;SDS011;10548;47.504;8.248;2022-09-09T00:24:38;9.33;;;2.10;;
20776;SDS011;10548;47.504;8.248;2022-09-09T00:30:29;6.30;;;1.90;;
20776;SDS011;10548;47.504;8.248;2022-09-09T00:33:03;9.27;;;2.10;;
20776;SDS011;10548;47.504;8.248;2022-09-09T00:35:46;8.33;;;2.20;;
20776;SDS011;10548;47.504;8.248;2022-09-09T00:38:20;6.37;;;2.27;;
20776;SDS011;10548;47.504;8.248;2022-09-09T00:41:11;7.10;;;2.40;;
20776;SDS011;10548;47.504;8.248;2022-09-09T00:44:23;9.93;;;2.50;;
20776;SDS011;10548;47.504;8.248;2022-09-09T00:50:30;7.80;;;2.13;;
20776;SDS011;10548;47.504;8.248;2022-09-09T00:56:38;8.03;;;2.23;;
20776;SDS011;10548;47.504;8.248;2022-09-09T00:59:28;7.53;;;2.50;;
20776;SDS011;10548;47.504;8.248;2022-09-09T01:05:16;5.23;;;2.07;;
20776;SDS011;10548;47.504;8.248;2022-09-09T01:07:53;5.13;;;2.10;;
20776;SDS011;10548;47.504;8.248;2022-09-09T01:13:22;9.97;;;2.53;;
20776;SDS011;10548;47.504;8.248;2022-09-09T01:15:59;10.73;;;2.10;;
20776;SDS011;10548;47.504;8.248;2022-09-09T01:18:44;6.37;;;2.20;;
20776;SDS011;10548;47.504;8.248;2022-09-09T01:21:19;8.00;;;2.30;;
20776;SDS011;10548;47.504;8.248;2022-09-09T01:24:19;12.13;;;2.43;;
20776;SDS011;10548;47.504;8.248;2022-09-09T01:27:13;8.23;;;2.97;;
20776;SDS011;10548;47.504;8.248;2022-09-09T01:29:41;7.27;;;2.87;;
20776;SDS011;10548;47.504;8.248;2022-09-09T01:35:14;11.50;;;3.10;;
20776;SDS011;10548;47.504;8.248;2022-09-09T01:37:53;7.67;;;2.53;;
20776;SDS011;10548;47.504;8.248;2022-09-09T01:40:20;9.70;;;2.43;;
20776;SDS011;10548;47.504;8.248;2022-09-09T01:42:49;4.47;;;2.30;;
20776;SDS011;10548;47.504;8.248;2022-09-09T01:45:16;11.37;;;2.70;;
20776;SDS011;10548;47.504;8.248;2022-09-09T01:47:43;9.90;;;2.87;;
20776;SDS011;10548;47.504;8.248;2022-09-09T01:50:18;14.50;;;3.63;;
20776;SDS011;10548;47.504;8.248;2022-09-09T01:52:48;9.63;;;2.80;;
20776;SDS011;10548;47.504;8.248;2022-09-09T01:55:37;6.13;;;2.40;;
20776;SDS011;10548;47.504;8.248;2022-09-09T01:58:26;13.03;;;4.03;;
20776;SDS011;10548;47.504;8.248;2022-09-09T02:01:25;14.00;;;3.33;;
20776;SDS011;10548;47.504;8.248;2022-09-09T02:10:30;6.87;;;3.57;;
20776;SDS011;10548;47.504;8.248;2022-09-09T02:13:16;17.30;;;3.40;;
20776;SDS011;10548;47.504;8.248;2022-09-09T02:15:53;9.63;;;3.30;;
20776;SDS011;10548;47.504;8.248;2022-09-09T02:18:26;12.67;;;3.47;;
20776;SDS011;10548;47.504;8.248;2022-09-09T02:20:57;5.97;;;3.17;;
20776;SDS011;10548;47.504;8.248;2022-09-09T02:23:25;8.63;;;3.20;;
20776;SDS011;10548;47.504;8.248;2022-09-09T02:25:55;12.40;;;2.93;;
20776;SDS011;10548;47.504;8.248;2022-09-09T02:28:25;9.73;;;3.53;;
20776;SDS011;10548;47.504;8.248;2022-09-09T02:30:54;8.23;;;2.43;;
20776;SDS011;10548;47.504;8.248;2022-09-09T02:33:30;6.73;;;2.77;;
20776;SDS011;10548;47.504;8.248;2022-09-09T02:36:03;8.57;;;2.90;;
20776;SDS011;10548;47.504;8.248;2022-09-09T02:38:36;11.57;;;2.90;;
20776;SDS011;10548;47.504;8.248;2022-09-09T02:41:11;10.73;;;2.37;;
20776;SDS011;10548;47.504;8.248;2022-09-09T02:43:39;8.90;;;2.03;;
20776;SDS011;10548;47.504;8.248;2022-09-09T02:49:28;4.43;;;1.90;;
20776;SDS011;10548;47.504;8.248;2022-09-09T02:52:21;8.93;;;2.50;;
20776;SDS011;10548;47.504;8.248;2022-09-09T02:55:02;7.77;;;2.17;;
20776;SDS011;10548;47.504;8.248;2022-09-09T02:57:36;9.40;;;2.60;;
20776;SDS011;10548;47.504;8.248;2022-09-09T03:00:06;7.73;;;2.73;;
20776;SDS011;10548;47.504;8.248;2022-09-09T03:02:34;5.67;;;2.17;;
20776;SDS011;10548;47.504;8.248;2022-09-09T03:05:05;6.00;;;2.67;;
20776;SDS011;10548;47.504;8.248;2022-09-09T03:07:33;17.90;;;2.90;;
20776;SDS011;10548;47.504;8.248;2022-09-09T03:10:00;12.07;;;4.90;;
20776;SDS011;10548;47.504;8.248;2022-09-09T03:12:28;8.80;;;4.17;;
20776;SDS011;10548;47.504;8.248;2022-09-09T03:14:55;11.83;;;4.47;;
20776;SDS011;10548;47.504;8.248;2022-09-09T03:17:23;9.90;;;3.93;;
20776;SDS011;10548;47.504;8.248;2022-09-09T03:19:53;10.33;;;4.50;;
20776;SDS011;10548;47.504;8.248;2022-09-09T03:22:21;12.53;;;4.53;;
20776;SDS011;10548;47.504;8.248;2022-09-09T03:24:48;10.83;;;4.27;;
20776;SDS011;10548;47.504;8.248;2022-09-09T03:27:16;9.97;;;3.63;;
20776;SDS011;10548;47.504;8.248;2022-09-09T03:29:44;9.03;;;3.50;;
20776;SDS011;10548;47.504;8.248;2022-09-09T03:32:17;8.57;;;2.80;;
20776;SDS011;10548;47.504;8.248;2022-09-09T03:34:45;5.80;;;2.63;;
20776;SDS011;10548;47.504;8.248;2022-09-09T03:37:16;4.47;;;2.10;;
20776;SDS011;10548;47.504;8.248;2022-09-09T03:39:44;7.80;;;1.83;;
20776;SDS011;10548;47.504;8.248;2022-09-09T03:42:14;7.47;;;2.17;;
20776;SDS011;10548;47.504;8.248;2022-09-09T03:44:47;7.13;;;2.20;;
20776;SDS011;10548;47.504;8.248;2022-09-09T03:47:18;10.10;;;2.80;;
20776;SDS011;10548;47.504;8.248;2022-09-09T03:49:46;5.03;;;1.90;;
20776;SDS011;10548;47.504;8.248;2022-09-09T03:52:13;4.53;;;2.00;;
20776;SDS011;10548;47.504;8.248;2022-09-09T03:54:48;8.40;;;2.20;;
20776;SDS011;10548;47.504;8.248;2022-09-09T03:57:15;5.73;;;2.37;;
20776;SDS011;10548;47.504;8.248;2022-09-09T03:59:43;3.10;;;2.13;;
20776;SDS011;10548;47.504;8.248;2022-09-09T04:02:11;9.70;;;2.90;;
20776;SDS011;10548;47.504;8.248;2022-09-09T04:04:38;6.67;;;2.63;;
20776;SDS011;10548;47.504;8.248;2022-09-09T04:07:06;8.20;;;2.33;;
20776;SDS011;10548;47.504;8.248;2022-09-09T04:09:33;5.30;;;2.50;;
20776;SDS011;10548;47.504;8.248;2022-09-09T04:12:01;8.33;;;2.63;;
20776;SDS011;10548;47.504;8.248;2022-09-09T04:14:29;8.40;;;2.50;;
20776;SDS011;10548;47.504;8.248;2022-09-09T04:16:57;10.93;;;2.60;;
20776;SDS011;10548;47.504;8.248;2022-09-09T04:19:25;7.87;;;2.80;;
20776;SDS011;10548;47.504;8.248;2022-09-09T04:21:53;5.63;;;2.40;;
20776;SDS011;10548;47.504;8.248;2022-09-09T04:24:21;9.00;;;2.77;;
20776;SDS011;10548;47.504;8.248;2022-09-09T04:26:49;7.63;;;2.83;;
20776;SDS011;10548;47.504;8.248;2022-09-09T04:29:16;7.10;;;2.57;;
20776;SDS011;10548;47.504;8.248;2022-09-09T04:31:43;7.50;;;2.80;;
20776;SDS011;10548;47.504;8.248;2022-09-09T04:34:11;5.67;;;2.60;;
20776;SDS011;10548;47.504;8.248;2022-09-09T04:36:39;9.10;;;2.40;;
20776;SDS011;10548;47.504;8.248;2022-09-09T04:39:07;10.73;;;3.90;;
20776;SDS011;10548;47.504;8.248;2022-09-09T04:41:35;7.87;;;3.77;;
20776;SDS011;10548;47.504;8.248;2022-09-09T04:44:02;8.03;;;4.70;;
20776;SDS011;10548;47.504;8.248;2022-09-09T04:46:31;15.77;;;4.70;;
20776;SDS011;10548;47.504;8.248;2022-09-09T04:49:00;7.80;;;3.90;;
20776;SDS011;10548;47.504;8.248;2022-09-09T04:51:30;7.17;;;2.73;;
20776;SDS011;10548;47.504;8.248;2022-09-09T04:53:57;6.10;;;2.10;;
20776;SDS011;10548;47.504;8.248;2022-09-09T04:56:25;4.50;;;2.20;;
20776;SDS011;10548;47.504;8.248;2022-09-09T04:58:57;6.63;;;2.37;;
20776;SDS011;10548;47.504;8.248;2022-09-09T05:01:35;5.80;;;2.80;;
20776;SDS011;10548;47.504;8.248;2022-09-09T05:04:04;4.27;;;2.43;;
20776;SDS011;10548;47.504;8.248;2022-09-09T05:06:32;5.27;;;2.40;;
20776;SDS011;10548;47.504;8.248;2022-09-09T05:09:00;5.23;;;2.83;;
20776;SDS011;10548;47.504;8.248;2022-09-09T05:11:29;9.67;;;3.00;;
20776;SDS011;10548;47.504;8.248;2022-09-09T05:14:14;4.07;;;2.63;;
20776;SDS011;10548;47.504;8.248;2022-09-09T05:16:41;6.47;;;2.90;;
20776;SDS011;10548;47.504;8.248;2022-09-09T05:19:10;5.97;;;3.07;;
20776;SDS011;10548;47.504;8.248;2022-09-09T05:21:43;21.23;;;3.57;;
20776;SDS011;10548;47.504;8.248;2022-09-09T05:24:12;26.83;;;4.37;;
20776;SDS011;10548;47.504;8.248;2022-09-09T05:26:40;10.43;;;2.40;;
20776;SDS011;10548;47.504;8.248;2022-09-09T05:29:07;13.53;;;3.40;;
20776;SDS011;10548;47.504;8.248;2022-09-09T05:31:35;8.40;;;3.47;;
20776;SDS011;10548;47.504;8.248;2022-09-09T05:34:07;13.67;;;3.37;;
20776;SDS011;10548;47.504;8.248;2022-09-09T05:36:35;15.70;;;4.00;;
20776;SDS011;10548;47.504;8.248;2022-09-09T05:39:02;5.13;;;2.27;;
20776;SDS011;10548;47.504;8.248;2022-09-09T05:41:31;7.83;;;2.47;;
20776;SDS011;10548;47.504;8.248;2022-09-09T05:44:01;5.13;;;2.40;;
20776;SDS011;10548;47.504;8.248;2022-09-09T05:46:32;5.27;;;2.47;;
20776;SDS011;10548;47.504;8.248;2022-09-09T05:48:59;6.43;;;2.17;;
20776;SDS011;10548;47.504;8.248;2022-09-09T05:51:31;7.10;;;2.33;;
20776;SDS011;10548;47.504;8.248;2022-09-09T05:54:03;10.77;;;3.30;;
20776;SDS011;10548;47.504;8.248;2022-09-09T05:56:33;7.90;;;3.17;;
20776;SDS011;10548;47.504;8.248;2022-09-09T05:59:01;5.07;;;2.40;;
20776;SDS011;10548;47.504;8.248;2022-09-09T06:01:29;5.50;;;2.73;;
20776;SDS011;10548;47.504;8.248;2022-09-09T06:04:00;5.03;;;2.70;;
20776;SDS011;10548;47.504;8.248;2022-09-09T06:06:36;19.20;;;4.20;;
20776;SDS011;10548;47.504;8.248;2022-09-09T06:09:15;14.30;;;4.43;;
20776;SDS011;10548;47.504;8.248;2022-09-09T06:11:43;26.23;;;7.80;;
20776;SDS011;10548;47.504;8.248;2022-09-09T06:14:11;11.03;;;4.07;;
20776;SDS011;10548;47.504;8.248;2022-09-09T06:16:39;8.93;;;3.77;;
20776;SDS011;10548;47.504;8.248;2022-09-09T06:19:15;8.17;;;3.17;;
20776;SDS011;10548;47.504;8.248;2022-09-09T06:21:42;6.90;;;3.20;;
20776;SDS011;10548;47.504;8.248;2022-09-09T06:24:11;4.03;;;2.47;;
20776;SDS011;10548;47.504;8.248;2022-09-09T06:26:40;4.60;;;2.10;;
20776;SDS011;10548;47.504;8.248;2022-09-09T06:29:11;7.13;;;2.20;;
20776;SDS011;10548;47.504;8.248;2022-09-09T06:31:39;3.97;;;2.00;;
20776;SDS011;10548;47.504;8.248;2022-09-09T06:34:18;4.33;;;2.60;;
20776;SDS011;10548;47.504;8.248;2022-09-09T06:36:49;8.27;;;3.10;;
20776;SDS011;10548;47.504;8.248;2022-09-09T06:39:16;8.37;;;2.33;;
20776;SDS011;10548;47.504;8.248;2022-09-09T06:41:44;6.20;;;2.67;;
20776;SDS011;10548;47.504;8.248;2022-09-09T06:44:31;5.00;;;2.00;;
20776;SDS011;10548;47.504;8.248;2022-09-09T06:47:02;15.50;;;2.90;;
20776;SDS011;10548;47.504;8.248;2022-09-09T06:49:31;5.57;;;2.13;;
20776;SDS011;10548;47.504;8.248;2022-09-09T06:51:59;8.50;;;1.73;;
20776;SDS011;10548;47.504;8.248;2022-09-09T06:54:28;3.87;;;1.93;;
20776;SDS011;10548;47.504;8.248;2022-09-09T06:56:55;2.90;;;1.60;;
20776;SDS011;10548;47.504;8.248;2022-09-09T06:59:24;2.00;;;1.50;;
20776;SDS011;10548;47.504;8.248;2022-09-09T07:01:53;7.23;;;2.13;;
20776;SDS011;10548;47.504;8.248;2022-09-09T07:04:23;3.77;;;1.67;;
20776;SDS011;10548;47.504;8.248;2022-09-09T07:06:50;3.37;;;1.50;;
20776;SDS011;10548;47.504;8.248;2022-09-09T07:09:24;3.57;;;1.87;;
20776;SDS011;10548;47.504;8.248;2022-09-09T07:11:52;6.43;;;2.00;;
20776;SDS011;10548;47.504;8.248;2022-09-09T07:14:22;10.03;;;2.20;;
20776;SDS011;10548;47.504;8.248;2022-09-09T07:16:59;8.30;;;2.10;;
20776;SDS011;10548;47.504;8.248;2022-09-09T07:19:32;3.07;;;1.63;;
20776;SDS011;10548;47.504;8.248;2022-09-09T07:22:02;6.07;;;2.20;;
20776;SDS011;10548;47.504;8.248;2022-09-09T07:24:31;6.13;;;2.03;;
20776;SDS011;10548;47.504;8.248;2022-09-09T07:26:59;5.73;;;1.77;;
20776;SDS011;10548;47.504;8.248;2022-09-09T07:29:26;4.03;;;1.67;;
20776;SDS011;10548;47.504;8.248;2022-09-09T07:31:53;5.97;;;2.10;;
20776;SDS011;10548;47.504;8.248;2022-09-09T07:34:26;5.63;;;1.90;;
20776;SDS011;10548;47.504;8.248;2022-09-09T07:36:53;4.37;;;1.77;;
20776;SDS011;10548;47.504;8.248;2022-09-09T07:39:21;3.70;;;1.80;;
20776;SDS011;10548;47.504;8.248;2022-09-09T07:41:51;7.50;;;1.80;;
20776;SDS011;10548;47.504;8.248;2022-09-09T07:44:22;6.47;;;2.00;;
20776;SDS011;10548;47.504;8.248;2022-09-09T07:47:02;6.63;;;1.90;;
20776;SDS011;10548;47.504;8.248;2022-09-09T07:49:35;6.07;;;2.13;;
20776;SDS011;10548;47.504;8.248;2022-09-09T07:52:04;5.37;;;1.70;;
20776;SDS011;10548;47.504;8.248;2022-09-09T07:54:32;4.00;;;1.60;;
20776;SDS011;10548;47.504;8.248;2022-09-09T07:57:02;4.83;;;1.60;;
20776;SDS011;10548;47.504;8.248;2022-09-09T07:59:33;4.67;;;1.40;;
20776;SDS011;10548;47.504;8.248;2022-09-09T08:02:01;3.90;;;1.70;;
20776;SDS011;10548;47.504;8.248;2022-09-09T08:04:31;5.67;;;2.40;;
20776;SDS011;10548;47.504;8.248;2022-09-09T08:07:00;2.97;;;1.80;;
20776;SDS011;10548;47.504;8.248;2022-09-09T08:09:30;3.73;;;1.73;;
20776;SDS011;10548;47.504;8.248;2022-09-09T08:12:19;4.13;;;1.70;;
20776;SDS011;10548;47.504;8.248;2022-09-09T08:14:46;3.57;;;1.60;;
20776;SDS011;10548;47.504;8.248;2022-09-09T08:17:15;4.07;;;1.60;;
20776;SDS011;10548;47.504;8.248;2022-09-09T08:19:42;5.17;;;2.00;;
20776;SDS011;10548;47.504;8.248;2022-09-09T08:22:16;4.83;;;1.57;;
20776;SDS011;10548;47.504;8.248;2022-09-09T08:24:43;8.43;;;1.83;;
20776;SDS011;10548;47.504;8.248;2022-09-09T08:27:11;8.67;;;2.33;;
20776;SDS011;10548;47.504;8.248;2022-09-09T08:29:39;9.40;;;1.63;;
20776;SDS011;10548;47.504;8.248;2022-09-09T08:32:06;7.47;;;1.67;;
20776;SDS011;10548;47.504;8.248;2022-09-09T08:34:35;6.67;;;1.80;;
20776;SDS011;10548;47.504;8.248;2022-09-09T08:37:10;3.27;;;1.47;;
20776;SDS011;10548;47.504;8.248;2022-09-09T08:39:39;4.23;;;1.40;;
20776;SDS011;10548;47.504;8.248;2022-09-09T08:42:41;6.03;;;1.40;;
20776;SDS011;10548;47.504;8.248;2022-09-09T08:46:39;2.07;;;1.10;;
20776;SDS011;10548;47.504;8.248;2022-09-09T08:51:24;6.93;;;1.60;;
20776;SDS011;10548;47.504;8.248;2022-09-09T08:53:53;10.57;;;1.80;;
20776;SDS011;10548;47.504;8.248;2022-09-09T08:56:25;2.97;;;1.20;;
20776;SDS011;10548;47.504;8.248;2022-09-09T08:58:56;7.17;;;1.57;;
20776;SDS011;10548;47.504;8.248;2022-09-09T09:01:36;4.83;;;1.30;;
20776;SDS011;10548;47.504;8.248;2022-09-09T09:07:39;6.10;;;1.40;;
20776;SDS011;10548;47.504;8.248;2022-09-09T09:10:45;6.53;;;1.40;;
20776;SDS011;10548;47.504;8.248;2022-09-09T09:16:34;7.00;;;1.27;;
20776;SDS011;10548;47.504;8.248;2022-09-09T09:19:15;5.20;;;1.30;;
20776;SDS011;10548;47.504;8.248;2022-09-09T09:21:51;5.67;;;1.27;;
20776;SDS011;10548;47.504;8.248;2022-09-09T09:24:48;4.27;;;1.40;;
20776;SDS011;10548;47.504;8.248;2022-09-09T09:28:24;7.90;;;1.37;;
20776;SDS011;10548;47.504;8.248;2022-09-09T09:31:07;7.57;;;1.30;;
20776;SDS011;10548;47.504;8.248;2022-09-09T09:33:50;5.57;;;1.43;;
20776;SDS011;10548;47.504;8.248;2022-09-09T09:36:41;6.70;;;1.20;;
20776;SDS011;10548;47.504;8.248;2022-09-09T09:39:31;6.03;;;1.77;;
20776;SDS011;10548;47.504;8.248;2022-09-09T09:42:24;9.57;;;1.70;;
20776;SDS011;10548;47.504;8.248;2022-09-09T09:44:55;6.97;;;1.40;;
20776;SDS011;10548;47.504;8.248;2022-09-09T09:47:22;6.40;;;1.57;;
20776;SDS011;10548;47.504;8.248;2022-09-09T09:50:16;7.40;;;1.97;;
20776;SDS011;10548;47.504;8.248;2022-09-09T09:52:57;5.17;;;1.40;;
20776;SDS011;10548;47.504;8.248;2022-09-09T09:55:28;8.03;;;1.83;;
20776;SDS011;10548;47.504;8.248;2022-09-09T09:58:02;5.53;;;1.73;;
20776;SDS011;10548;47.504;8.248;2022-09-09T10:00:36;5.37;;;1.77;;
20776;SDS011;10548;47.504;8.248;2022-09-09T10:03:23;14.10;;;2.50;;
20776;SDS011;10548;47.504;8.248;2022-09-09T10:06:00;15.40;;;2.67;;
20776;SDS011;10548;47.504;8.248;2022-09-09T10:08:27;8.87;;;2.00;;
20776;SDS011;10548;47.504;8.248;2022-09-09T10:18:25;5.37;;;1.80;;
20776;SDS011;10548;47.504;8.248;2022-09-09T10:20:54;7.40;;;1.70;;
20776;SDS011;10548;47.504;8.248;2022-09-09T10:26:52;8.43;;;2.00;;
20776;SDS011;10548;47.504;8.248;2022-09-09T10:32:41;6.93;;;2.00;;
20776;SDS011;10548;47.504;8.248;2022-09-09T10:35:30;7.87;;;1.90;;
20776;SDS011;10548;47.504;8.248;2022-09-09T10:38:20;5.37;;;1.97;;
20776;SDS011;10548;47.504;8.248;2022-09-09T10:45:18;8.50;;;1.60;;
20776;SDS011;10548;47.504;8.248;2022-09-09T10:54:06;3.87;;;1.43;;
20776;SDS011;10548;47.504;8.248;2022-09-09T10:56:59;4.03;;;1.40;;
20776;SDS011;10548;47.504;8.248;2022-09-09T10:59:33;7.57;;;1.93;;
20776;SDS011;10548;47.504;8.248;2022-09-09T11:02:12;6.00;;;1.67;;
20776;SDS011;10548;47.504;8.248;2022-09-09T11:04:54;4.87;;;1.50;;
20776;SDS011;10548;47.504;8.248;2022-09-09T11:07:42;6.07;;;1.50;;
20776;SDS011;10548;47.504;8.248;2022-09-09T11:13:25;5.60;;;1.40;;
20776;SDS011;10548;47.504;8.248;2022-09-09T11:19:32;8.00;;;1.47;;
20776;SDS011;10548;47.504;8.248;2022-09-09T11:22:02;5.37;;;1.30;;
20776;SDS011;10548;47.504;8.248;2022-09-09T11:24:57;6.13;;;1.50;;
20776;SDS011;10548;47.504;8.248;2022-09-09T11:27:56;4.67;;;1.17;;
20776;SDS011;10548;47.504;8.248;2022-09-09T11:30:59;8.20;;;1.40;;
20776;SDS011;10548;47.504;8.248;2022-09-09T11:35:11;5.70;;;2.10;;
20776;SDS011;10548;47.504;8.248;2022-09-09T11:40:09;7.30;;;1.20;;
20776;SDS011;10548;47.504;8.248;2022-09-09T11:43:04;7.03;;;1.50;;
20776;SDS011;10548;47.504;8.248;2022-09-09T11:45:39;4.13;;;1.20;;
20776;SDS011;10548;47.504;8.248;2022-09-09T11:50:58;4.73;;;1.17;;
20776;SDS011;10548;47.504;8.248;2022-09-09T11:53:26;4.57;;;1.10;;
20776;SDS011;10548;47.504;8.248;2022-09-09T11:56:04;3.70;;;1.27;;
20776;SDS011;10548;47.504;8.248;2022-09-09T11:58:34;5.60;;;1.50;;
20776;SDS011;10548;47.504;8.248;2022-09-09T12:01:25;4.43;;;1.20;;
20776;SDS011;10548;47.504;8.248;2022-09-09T12:03:57;3.77;;;1.13;;
20776;SDS011;10548;47.504;8.248;2022-09-09T12:06:32;2.20;;;1.10;;
20776;SDS011;10548;47.504;8.248;2022-09-09T12:12:30;5.60;;;1.20;;
20776;SDS011;10548;47.504;8.248;2022-09-09T12:15:19;3.67;;;1.00;;
20776;SDS011;10548;47.504;8.248;2022-09-09T12:17:52;2.23;;;0.90;;
20776;SDS011;10548;47.504;8.248;2022-09-09T12:20:34;3.97;;;1.10;;
20776;SDS011;10548;47.504;8.248;2022-09-09T12:24:27;6.53;;;1.20;;
20776;SDS011;10548;47.504;8.248;2022-09-09T12:26:15;4.20;;;1.10;;
20776;SDS011;10548;47.504;8.248;2022-09-09T12:29:14;2.13;;;0.90;;
20776;SDS011;10548;47.504;8.248;2022-09-09T12:32:15;5.97;;;1.10;;
20776;SDS011;10548;47.504;8.248;2022-09-09T12:37:51;5.00;;;1.10;;
20776;SDS011;10548;47.504;8.248;2022-09-09T12:40:30;2.10;;;0.87;;
20776;SDS011;10548;47.504;8.248;2022-09-09T12:43:02;4.63;;;1.27;;
20776;SDS011;10548;47.504;8.248;2022-09-09T12:45:47;4.03;;;1.20;;
20776;SDS011;10548;47.504;8.248;2022-09-09T12:48:17;2.27;;;1.00;;
20776;SDS011;10548;47.504;8.248;2022-09-09T12:50:49;2.07;;;0.87;;
20776;SDS011;10548;47.504;8.248;2022-09-09T12:53:26;4.67;;;1.00;;
20776;SDS011;10548;47.504;8.248;2022-09-09T12:55:59;3.30;;;0.80;;
20776;SDS011;10548;47.504;8.248;2022-09-09T12:58:45;2.13;;;0.60;;
20776;SDS011;10548;47.504;8.248;2022-09-09T13:01:21;3.03;;;0.80;;
20776;SDS011;10548;47.504;8.248;2022-09-09T13:03:59;4.37;;;1.33;;
20776;SDS011;10548;47.504;8.248;2022-09-09T13:06:29;3.83;;;1.10;;
20776;SDS011;10548;47.504;8.248;2022-09-09T13:08:58;7.53;;;1.20;;
20776;SDS011;10548;47.504;8.248;2022-09-09T13:11:31;3.00;;;1.00;;
20776;SDS011;10548;47.504;8.248;2022-09-09T13:14:04;2.90;;;1.10;;
20776;SDS011;10548;47.504;8.248;2022-09-09T13:16:33;3.23;;;1.20;;
20776;SDS011;10548;47.504;8.248;2022-09-09T13:19:08;5.13;;;1.33;;
20776;SDS011;10548;47.504;8.248;2022-09-09T13:21:41;3.90;;;1.23;;
20776;SDS011;10548;47.504;8.248;2022-09-09T13:27:00;4.33;;;1.20;;
20776;SDS011;10548;47.504;8.248;2022-09-09T13:29:30;3.50;;;1.23;;
20776;SDS011;10548;47.504;8.248;2022-09-09T13:32:05;4.10;;;1.03;;
20776;SDS011;10548;47.504;8.248;2022-09-09T13:34:39;4.27;;;1.60;;
20776;SDS011;10548;47.504;8.248;2022-09-09T13:37:38;3.57;;;1.20;;
20776;SDS011;10548;47.504;8.248;2022-09-09T13:40:05;4.73;;;1.30;;
20776;SDS011;10548;47.504;8.248;2022-09-09T13:42:43;3.53;;;1.13;;
20776;SDS011;10548;47.504;8.248;2022-09-09T13:45:15;5.77;;;1.33;;
20776;SDS011;10548;47.504;8.248;2022-09-09T13:47:47;6.83;;;1.30;;
20776;SDS011;10548;47.504;8.248;2022-09-09T13:50:28;4.07;;;1.10;;
20776;SDS011;10548;47.504;8.248;2022-09-09T13:52:57;5.30;;;1.57;;
20776;SDS011;10548;47.504;8.248;2022-09-09T13:55:25;2.70;;;0.80;;
20776;SDS011;10548;47.504;8.248;2022-09-09T13:57:54;2.00;;;0.80;;
20776;SDS011;10548;47.504;8.248;2022-09-09T14:00:24;6.80;;;1.00;;
20776;SDS011;10548;47.504;8.248;2022-09-09T14:02:51;7.63;;;1.40;;
20776;SDS011;10548;47.504;8.248;2022-09-09T14:05:18;3.07;;;1.00;;
20776;SDS011;10548;47.504;8.248;2022-09-09T14:07:47;3.10;;;1.20;;
20776;SDS011;10548;47.504;8.248;2022-09-09T14:10:19;3.23;;;1.10;;
20776;SDS011;10548;47.504;8.248;2022-09-09T14:12:46;2.03;;;0.90;;
20776;SDS011;10548;47.504;8.248;2022-09-09T14:15:13;4.00;;;1.33;;
20776;SDS011;10548;47.504;8.248;2022-09-09T14:17:41;3.03;;;1.00;;
20776;SDS011;10548;47.504;8.248;2022-09-09T14:20:08;3.27;;;1.00;;
20776;SDS011;10548;47.504;8.248;2022-09-09T14:22:38;3.08;;;1.05;;
20776;SDS011;10548;47.504;8.248;2022-09-09T14:25:08;2.60;;;0.80;;
20776;SDS011;10548;47.504;8.248;2022-09-09T14:27:35;2.20;;;0.97;;
20776;SDS011;10548;47.504;8.248;2022-09-09T14:30:03;7.10;;;1.13;;
20776;SDS011;10548;47.504;8.248;2022-09-09T14:32:30;2.93;;;0.80;;
20776;SDS011;10548;47.504;8.248;2022-09-09T14:34:59;4.03;;;1.17;;
20776;SDS011;10548;47.504;8.248;2022-09-09T14:37:27;3.30;;;0.73;;
20776;SDS011;10548;47.504;8.248;2022-09-09T14:39:54;2.53;;;0.70;;
20776;SDS011;10548;47.504;8.248;2022-09-09T14:42:21;6.63;;;1.00;;
20776;SDS011;10548;47.504;8.248;2022-09-09T14:44:48;1.38;;;0.70;;
20776;SDS011;10548;47.504;8.248;2022-09-09T14:47:16;3.47;;;1.10;;
20776;SDS011;10548;47.504;8.248;2022-09-09T14:49:43;2.63;;;0.93;;
20776;SDS011;10548;47.504;8.248;2022-09-09T14:52:12;2.13;;;0.93;;
20776;SDS011;10548;47.504;8.248;2022-09-09T14:54:39;5.82;;;1.58;;
20776;SDS011;10548;47.504;8.248;2022-09-09T14:57:07;4.07;;;1.10;;
20776;SDS011;10548;47.504;8.248;2022-09-09T14:59:34;3.00;;;0.70;;
20776;SDS011;10548;47.504;8.248;2022-09-09T15:02:01;3.08;;;0.90;;
20776;SDS011;10548;47.504;8.248;2022-09-09T15:04:31;1.83;;;0.98;;
20776;SDS011;10548;47.504;8.248;2022-09-09T15:06:58;3.38;;;0.90;;
20776;SDS011;10548;47.504;8.248;2022-09-09T15:09:25;2.78;;;0.80;;
20776;SDS011;10548;47.504;8.248;2022-09-09T15:11:52;4.87;;;0.77;;
20776;SDS011;10548;47.504;8.248;2022-09-09T15:14:19;1.47;;;0.60;;
20776;SDS011;10548;47.504;8.248;2022-09-09T15:16:50;7.90;;;1.00;;
20776;SDS011;10548;47.504;8.248;2022-09-09T15:19:17;4.40;;;0.87;;
20776;SDS011;10548;47.504;8.248;2022-09-09T15:21:44;5.75;;;1.05;;
20776;SDS011;10548;47.504;8.248;2022-09-09T15:24:12;1.35;;;0.70;;
20776;SDS011;10548;47.504;8.248;2022-09-09T15:26:39;2.95;;;0.85;;
20776;SDS011;10548;47.504;8.248;2022-09-09T15:29:07;3.30;;;1.08;;
20776;SDS011;10548;47.504;8.248;2022-09-09T15:31:35;1.30;;;0.80;;
20776;SDS011;10548;47.504;8.248;2022-09-09T15:34:06;2.78;;;0.90;;
20776;SDS011;10548;47.504;8.248;2022-09-09T15:36:37;5.97;;;1.08;;
20776;SDS011;10548;47.504;8.248;2022-09-09T15:39:07;3.50;;;0.90;;
20776;SDS011;10548;47.504;8.248;2022-09-09T15:41:39;3.30;;;1.00;;
20776;SDS011;10548;47.504;8.248;2022-09-09T15:44:06;2.28;;;0.95;;
20776;SDS011;10548;47.504;8.248;2022-09-09T15:46:41;3.40;;;0.85;;
20776;SDS011;10548;47.504;8.248;2022-09-09T15:49:14;2.47;;;1.00;;
20776;SDS011;10548;47.504;8.248;2022-09-09T15:51:47;2.38;;;0.85;;
20776;SDS011;10548;47.504;8.248;2022-09-09T15:54:21;3.05;;;1.00;;
20776;SDS011;10548;47.504;8.248;2022-09-09T15:56:54;6.88;;;1.15;;
20776;SDS011;10548;47.504;8.248;2022-09-09T15:59:25;4.85;;;1.50;;
20776;SDS011;10548;47.504;8.248;2022-09-09T16:01:57;1.92;;;0.85;;
20776;SDS011;10548;47.504;8.248;2022-09-09T16:04:27;2.88;;;0.90;;
20776;SDS011;10548;47.504;8.248;2022-09-09T16:06:56;4.10;;;1.10;;
20776;SDS011;10548;47.504;8.248;2022-09-09T16:09:27;3.30;;;0.90;;
20776;SDS011;10548;47.504;8.248;2022-09-09T16:11:56;6.05;;;1.10;;
20776;SDS011;10548;47.504;8.248;2022-09-09T16:14:25;2.08;;;0.80;;
20776;SDS011;10548;47.504;8.248;2022-09-09T16:16:53;2.73;;;1.00;;
20776;SDS011;10548;47.504;8.248;2022-09-09T16:19:22;3.97;;;0.80;;
20776;SDS011;10548;47.504;8.248;2022-09-09T16:21:49;2.43;;;0.70;;
20776;SDS011;10548;47.504;8.248;2022-09-09T16:24:17;2.90;;;0.90;;
20776;SDS011;10548;47.504;8.248;2022-09-09T16:26:55;2.47;;;0.70;;
20776;SDS011;10548;47.504;8.248;2022-09-09T16:29:22;3.70;;;0.80;;
20776;SDS011;10548;47.504;8.248;2022-09-09T16:31:50;1.63;;;0.70;;
20776;SDS011;10548;47.504;8.248;2022-09-09T16:34:18;3.17;;;0.90;;
20776;SDS011;10548;47.504;8.248;2022-09-09T16:36:46;2.20;;;0.63;;
20776;SDS011;10548;47.504;8.248;2022-09-09T16:39:15;7.47;;;0.90;;
20776;SDS011;10548;47.504;8.248;2022-09-09T16:41:44;4.20;;;0.90;;
20776;SDS011;10548;47.504;8.248;2022-09-09T16:44:14;1.83;;;0.70;;
20776;SDS011;10548;47.504;8.248;2022-09-09T16:46:43;4.07;;;0.90;;
20776;SDS011;10548;47.504;8.248;2022-09-09T16:49:12;3.47;;;1.00;;
20776;SDS011;10548;47.504;8.248;2022-09-09T16:51:45;5.27;;;1.33;;
20776;SDS011;10548;47.504;8.248;2022-09-09T16:54:14;4.57;;;1.07;;